Flight Track Log - Related Links

Times and Time Zones

All times are in EDT time to prevent confusion due to time zone crossing. See the N911TW flight status page for this flight to view local times or setup timezone preferences in your user account.

Time Position Orientation Groundspeed Altitude Reporting Facility
EDT Latitude Longitude Course Direction KTS MPH feet Rate Location/Type
Sun 12:42:28 PM 35.9847 -83.7942 71° East 113 130 2,800  Level Indianapolis Center
Sun 12:43:00 PM 36.0058 -83.7922 North 127 146 3,300 913 Climbing Atlanta Center
Sun 12:44:00 PM 36.0414 -83.8025 347° North 99 114 4,200 900 Climbing Atlanta Center
Sun 12:45:00 PM 36.0789 -83.8050 357° North 124 143 5,100 850 Climbing Atlanta Center
Sun 12:46:00 PM 36.1206 -83.8075 357° North 136 157 5,900 695 Climbing Atlanta Center
Sun 12:46:35 PM 36.1403 -83.8042 North 147 169 6,200 928 Climbing Indianapolis Center
Sun 12:47:37 PM 36.1922 -83.8064 358° North 154 177 7,400 968 Climbing Indianapolis Center
Sun 12:48:39 PM 36.2358 -83.8083 358° North 156 180 8,200 780 Climbing Indianapolis Center
Sun 12:49:40 PM 36.2839 -83.8119 357° North 164 189 9,000 780 Climbing Indianapolis Center
Sun 12:50:42 PM 36.3286 -83.8133 359° North 164 189 9,800 677 Climbing Indianapolis Center
Sun 12:51:44 PM 36.3739 -83.8144 359° North 163 188 10,400 677 Climbing Indianapolis Center
Sun 12:52:46 PM 36.4200 -83.8178 357° North 164 189 11,200 774 Climbing Indianapolis Center
Sun 12:53:48 PM 36.4767 -83.8214 357° North 168 193 12,000 387 Climbing Indianapolis Center
Sun 12:54:50 PM 36.5281 -83.8228 359° North 176 203 12,000  Level Indianapolis Center
Sun 12:55:52 PM 36.5831 -83.8269 357° North 189 217 12,000  Level Indianapolis Center
Sun 12:56:54 PM 36.6361 -83.8294 358° North 192 221 12,000  Level Indianapolis Center
Sun 12:57:56 PM 36.6886 -83.8328 357° North 189 217 12,000  Level Indianapolis Center
Sun 12:58:58 PM 36.7397 -83.8358 357° North 185 213 12,000  Level Indianapolis Center
Sun 01:00:00 PM 36.7925 -83.8383 358° North 187 215 12,000  Level Indianapolis Center
Sun 01:01:02 PM 36.8533 -83.8422 357° North 187 215 12,000  Level Indianapolis Center
Sun 01:02:04 PM 36.9056 -83.8447 358° North 187 215 12,000  Level Indianapolis Center
Sun 01:03:06 PM 36.9592 -83.8478 357° North 190 219 12,000  Level Indianapolis Center
Sun 01:04:08 PM 37.0117 -83.8500 358° North 189 217 12,000  Level Indianapolis Center
Sun 01:05:10 PM 37.0631 -83.8531 357° North 186 214 12,000  Level Indianapolis Center
Sun 01:06:12 PM 37.1158 -83.8561 357° North 187 215 12,000  Level Indianapolis Center
Sun 01:07:14 PM 37.1764 -83.8600 357° North 186 214 12,000  Level Indianapolis Center
Sun 01:08:16 PM 37.2278 -83.8636 357° North 185 213 12,000  Level Indianapolis Center
Sun 01:09:18 PM 37.2806 -83.8656 358° North 188 216 12,000  Level Indianapolis Center
Sun 01:10:20 PM 37.3333 -83.8686 357° North 189 217 12,000  Level Indianapolis Center
Sun 01:11:21 PM 37.3861 -83.8711 358° North 188 216 12,000  Level Indianapolis Center
Sun 01:12:23 PM 37.4386 -83.8739 358° North 187 215 12,000  Level Indianapolis Center
Sun 01:13:25 PM 37.4911 -83.8764 358° North 187 215 12,000 48 Level Indianapolis Center
Sun 01:14:27 PM 37.5519 -83.8794 358° North 187 215 12,100  Climbing Indianapolis Center
Sun 01:15:29 PM 37.6042 -83.8836 356° North 187 215 12,000 -48 Descending Indianapolis Center
Sun 01:16:31 PM 37.6575 -83.8872 357° North 189 217 12,000  Level Indianapolis Center
Sun 01:17:32 PM 37.7103 -83.8897 358° North 190 219 12,000  Level Indianapolis Center
Sun 01:18:34 PM 37.7636 -83.8928 357° North 190 219 12,000  Level Indianapolis Center
Sun 01:19:36 PM 37.8178 -83.8961 357° North 192 221 12,000  Level Indianapolis Center
Sun 01:20:38 PM 37.8794 -83.8989 358° North 189 217 12,000  Level Indianapolis Center
Sun 01:21:39 PM 37.9311 -83.9022 357° North 187 215 12,000  Level Indianapolis Center
Sun 01:22:41 PM 37.9858 -83.9042 358° North 193 222 12,000  Level Indianapolis Center
Sun 01:23:43 PM 38.0389 -83.9075 357° North 191 220 12,000  Level Indianapolis Center
Sun 01:24:45 PM 38.0919 -83.9108 357° North 192 221 12,000  Level Indianapolis Center
Sun 01:25:46 PM 38.1467 -83.9128 358° North 196 226 12,000  Level Indianapolis Center
Sun 01:26:48 PM 38.2000 -83.9167 357° North 193 222 12,000  Level Indianapolis Center
Sun 01:27:50 PM 38.2622 -83.9194 358° North 193 222 12,000  Level Indianapolis Center
Sun 01:28:51 PM 38.3156 -83.9214 358° North 193 222 12,000  Level Indianapolis Center
Sun 01:29:53 PM 38.3669 -83.9258 356° North 188 216 12,000  Level Indianapolis Center
Sun 01:30:55 PM 38.4200 -83.9281 358° North 188 216 12,000  Level Indianapolis Center
Sun 01:31:56 PM 38.4719 -83.9319 357° North 187 215 12,000  Level Indianapolis Center
Sun 01:32:58 PM 38.5244 -83.9347 358° North 188 216 12,000  Level Indianapolis Center
Sun 01:34:00 PM 38.5769 -83.9369 358° North 187 215 12,000  Level Indianapolis Center
Sun 01:35:02 PM 38.6383 -83.9411 357° North 187 215 12,000  Level Indianapolis Center
Sun 01:36:03 PM 38.6906 -83.9433 358° North 187 215 12,000  Level Indianapolis Center
Sun 01:37:05 PM 38.7419 -83.9475 356° North 184 212 12,000  Level Indianapolis Center
Sun 01:38:06 PM 38.7944 -83.9503 358° North 184 212 12,000  Level Indianapolis Center
Sun 01:39:08 PM 38.8458 -83.9525 358° North 183 211 12,000  Level Indianapolis Center
Sun 01:40:10 PM 38.8981 -83.9556 357° North 185 213 12,000  Level Indianapolis Center
Sun 01:41:11 PM 38.9506 -83.9594 357° North 187 215 12,000  Level Indianapolis Center
Sun 01:42:13 PM 39.0039 -83.9625 357° North 190 219 12,000  Level Indianapolis Center
Sun 01:43:15 PM 39.0553 -83.9653 358° North 185 213 12,000  Level Indianapolis Center
Sun 01:44:16 PM 39.1083 -83.9681 358° North 188 216 12,000  Level Indianapolis Center
Sun 01:45:18 PM 39.1686 -83.9719 357° North 183 211 12,000  Level Indianapolis Center
Sun 01:46:20 PM 39.2208 -83.9756 357° North 186 214 12,000  Level Indianapolis Center
Sun 01:47:21 PM 39.2714 -83.9781 358° North 181 208 12,000  Level Indianapolis Center
Sun 01:48:23 PM 39.3178 -83.9814 357° North 180 207 12,000  Level Indianapolis Center
Sun 01:49:25 PM 39.3769 -83.9844 358° North 181 208 12,000  Level Indianapolis Center
Sun 01:50:26 PM 39.4250 -83.9872 357° North 185 213 12,000  Level Indianapolis Center
Sun 01:51:28 PM 39.4758 -83.9908 357° North 185 213 12,000  Level Indianapolis Center
Sun 01:52:30 PM 39.5281 -83.9944 357° North 185 213 12,000  Level Indianapolis Center
Sun 01:53:31 PM 39.5800 -83.9969 358° North 184 212 12,000  Level Indianapolis Center
Sun 01:54:33 PM 39.6406 -84.0011 357° North 185 213 12,000  Level Indianapolis Center
Sun 01:55:34 PM 39.6911 -84.0036 358° North 181 208 12,000  Level Indianapolis Center
Sun 01:56:37 PM 39.7422 -84.0064 358° North 181 208 12,000  Level Indianapolis Center
Sun 01:57:38 PM 39.7931 -84.0100 357° North 181 208 12,000  Level Indianapolis Center
Sun 01:58:39 PM 39.8442 -84.0131 357° North 181 208 12,000 -49 Level Indianapolis Center
Sun 01:59:41 PM 39.8953 -84.0158 358° North 182 209 11,900 -49 Descending Indianapolis Center
Sun 02:00:42 PM 39.9467 -84.0189 357° North 183 211 11,900  Level Indianapolis Center
Sun 02:01:44 PM 39.9981 -84.0217 358° North 184 212 11,900  Level Indianapolis Center
Sun 02:02:46 PM 40.0506 -84.0250 357° North 186 214 11,900  Level Indianapolis Center
Sun 02:03:47 PM 40.1028 -84.0278 358° North 188 216 11,900  Level Indianapolis Center
Sun 02:04:49 PM 40.1556 -84.0306 358° North 188 216 11,900  Level Indianapolis Center
Sun 02:05:50 PM 40.2161 -84.0339 358° North 187 215 11,900  Level Indianapolis Center
Sun 02:06:52 PM 40.2689 -84.0378 357° North 188 216 11,900  Level Indianapolis Center
Sun 02:07:53 PM 40.3203 -84.0403 358° North 184 212 11,900  Level Indianapolis Center
Sun 02:08:55 PM 40.3739 -84.0439 357° North 190 219 11,900  Level Indianapolis Center
Sun 02:09:57 PM 40.4261 -84.0469 357° North 189 217 11,900  Level Indianapolis Center
Sun 02:10:58 PM 40.4783 -84.0506 357° North 187 215 11,900  Level Indianapolis Center
Sun 02:12:00 PM 40.5300 -84.0550 356° North 184 212 11,900  Level Indianapolis Center
Sun 02:13:02 PM 40.5822 -84.0561 359° North 186 214 11,900  Level Indianapolis Center
Sun 02:14:03 PM 40.6336 -84.0603 356° North 185 213 11,900  Level Indianapolis Center
Sun 02:15:05 PM 40.6944 -84.0628 358° North 187 215 11,900  Level Indianapolis Center
Sun 02:16:06 PM 40.7461 -84.0658 357° North 185 213 11,900  Level Indianapolis Center
Sun 02:17:08 PM 40.7983 -84.0692 357° North 185 213 11,900 48 Level Indianapolis Center
Sun 02:18:10 PM 40.8497 -84.0722 357° North 184 212 12,000 49 Climbing Indianapolis Center
Sun 02:19:11 PM 40.9014 -84.0758 357° North 184 212 12,000  Level Indianapolis Center
Sun 02:20:13 PM 40.9525 -84.0789 357° North 181 208 12,000  Level Indianapolis Center
Sun 02:21:14 PM 41.0053 -84.0825 357° North 188 216 12,000  Level Indianapolis Center
Sun 02:22:16 PM 41.0550 -84.0842 359° North 184 212 12,000  Level Indianapolis Center
Sun 02:23:18 PM 41.1081 -84.0881 357° North 188 216 12,000  Level Indianapolis Center
Sun 02:24:19 PM 41.1667 -84.0908 358° North 181 208 12,000  Level Indianapolis Center
Sun 02:25:21 PM 41.2197 -84.0936 358° North 186 214 12,000  Level Indianapolis Center
Sun 02:26:18 PM 41.2639 -84.1000 354° North 181 208 12,000  Level Cleveland Center
Sun 02:27:18 PM 41.3117 -84.1025 358° North 181 208 12,000 -150 Level Cleveland Center
Sun 02:28:18 PM 41.3678 -84.1083 356° North 181 208 11,700 -400 Descending Cleveland Center
Sun 02:29:18 PM 41.4219 -84.1114 358° North 181 208 11,200 -500 Descending Cleveland Center
Sun 02:30:18 PM 41.4761 -84.1142 358° North 181 208 10,700 -550 Descending Cleveland Center
Sun 02:31:18 PM 41.5322 -84.1172 358° North 186 214 10,100 -650 Descending Cleveland Center
Sun 02:32:18 PM 41.5883 -84.1231 356° North 191 220 9,400 -700 Descending Cleveland Center
Sun 02:33:18 PM 41.6425 -84.1233 360° North 197 227 8,700 -695 Descending Cleveland Center
Sun 02:33:53 PM 41.6736 -84.1278 354° North 199 229 8,300 -727 Descending Cleveland Center
Sun 02:34:24 PM 41.7031 -84.1267 North 197 227 7,900 -706 Descending Cleveland Center
Sun 02:35:18 PM 41.7528 -84.1294 358° North 197 227 7,300 -474 Descending Cleveland Center
Sun 02:36:18 PM 41.8028 -84.1350 355° North 197 227 7,000 -150 Descending Cleveland Center
Sun 02:37:18 PM 41.8528 -84.1378 358° North 186 214 7,000  Level Cleveland Center
Sun 02:38:28 PM 41.9069 -84.1408 358° North 169 194 7,000  Level Cleveland Center
Sun 02:39:29 PM 41.9567 -84.1464 355° North 173 199 7,000 -188 Level Cleveland Center
Sun 02:40:36 PM 42.0072 -84.1267 16° North 185 213 6,600 -425 Descending Cleveland Center
Sun 02:41:36 PM 42.0603 -84.1044 17° North 184 212 6,100 -493 Descending Cleveland Center
Sun 02:42:50 PM 42.1172 -84.0825 16° North 184 212 5,500 -469 Descending Cleveland Center
Sun 02:43:44 PM 42.1614 -84.0625 19° North 182 209 5,100 -470 Descending Cleveland Center
Sun 02:44:45 PM 42.2100 -84.0456 14° North 183 211 4,600 -492 Descending Cleveland Center
Sun 02:45:46 PM 42.2628 -84.0231 18° North 183 211 4,100 -310 Descending Cleveland Center
Sun 02:46:41 PM 42.3031 -84.0056 18° North 174 200 4,000 -55 Descending Cleveland Center
Sun 02:47:36 PM 42.3433 -83.9825 23° Northeast 173 199 4,000  Level Cleveland Center
Sun 02:48:37 PM 42.3739 -83.9336 50° Northeast 169 194 4,000  Level Cleveland Center
Sun 02:49:44 PM 42.4086 -83.8819 48° Northeast 167 192 4,000  Level Cleveland Center
Sun 02:50:44 PM 42.4453 -83.8417 39° Northeast 166 191 4,000 -149 Level Cleveland Center
Sun 02:51:45 PM 42.4800 -83.7983 43° Northeast 178 205 3,700 -422 Descending Cleveland Center
Sun 02:52:52 PM 42.5250 -83.7472 40° Northeast 181 208 3,100 -516 Descending Cleveland Center
Sun 02:53:53 PM 42.5556 -83.6953 51° Northeast 177 204 2,600 -295 Descending Cleveland Center
Sun 02:54:54 PM 42.5861 -83.6514 47° Northeast 157 181 2,500 -49 Descending Cleveland Center
Sun 02:55:55 PM 42.6081 -83.6047 57° Northeast 142 163 2,500 -103 Level Cleveland Center
Sun 02:56:50 PM 42.6322 -83.5633 52° Northeast 148 170 2,300 -275 Descending Cleveland Center
Sun 02:57:44 PM 42.6519 -83.5247 55° Northeast 139 160 2,000 -198 Descending Cleveland Center
Sun 02:58:51 PM 42.6653 -83.4858 65° Northeast 88 101 1,900 -328 Descending Cleveland Center
Sun 02:59:52 PM 42.6642 -83.4464 92° East 97 112 1,300 -590 Descending Cleveland Center

Login

Don't have an account? Register now (free) for customized features, flight alerts, and more!